sensor_id;sensor_type;location;lat;lon;timestamp;P1;durP1;ratioP1;P2;durP2;ratioP2
2658;SDS011;1339;53.304;10.406;2024-02-15T00:00:51;13.13;;;11.65;;
2658;SDS011;1339;53.304;10.406;2024-02-15T00:03:18;11.50;;;10.38;;
2658;SDS011;1339;53.304;10.406;2024-02-15T00:05:46;10.52;;;9.40;;
2658;SDS011;1339;53.304;10.406;2024-02-15T00:08:13;11.48;;;9.77;;
2658;SDS011;1339;53.304;10.406;2024-02-15T00:10:42;13.68;;;10.15;;
2658;SDS011;1339;53.304;10.406;2024-02-15T00:13:11;12.45;;;11.15;;
2658;SDS011;1339;53.304;10.406;2024-02-15T00:15:38;13.55;;;11.75;;
2658;SDS011;1339;53.304;10.406;2024-02-15T00:18:05;14.05;;;11.85;;
2658;SDS011;1339;53.304;10.406;2024-02-15T00:20:33;14.77;;;11.88;;
2658;SDS011;1339;53.304;10.406;2024-02-15T00:23:00;14.23;;;11.63;;
2658;SDS011;1339;53.304;10.406;2024-02-15T00:25:27;11.50;;;9.85;;
2658;SDS011;1339;53.304;10.406;2024-02-15T00:27:56;12.63;;;11.30;;
2658;SDS011;1339;53.304;10.406;2024-02-15T00:30:25;13.48;;;11.23;;
2658;SDS011;1339;53.304;10.406;2024-02-15T00:32:52;12.90;;;11.63;;
2658;SDS011;1339;53.304;10.406;2024-02-15T00:35:20;10.98;;;9.88;;
2658;SDS011;1339;53.304;10.406;2024-02-15T00:37:47;11.05;;;9.95;;
2658;SDS011;1339;53.304;10.406;2024-02-15T00:40:15;14.68;;;11.35;;
2658;SDS011;1339;53.304;10.406;2024-02-15T00:42:42;9.50;;;8.50;;
2658;SDS011;1339;53.304;10.406;2024-02-15T00:45:10;9.52;;;8.63;;
2658;SDS011;1339;53.304;10.406;2024-02-15T00:47:38;9.68;;;8.45;;
2658;SDS011;1339;53.304;10.406;2024-02-15T00:50:07;10.27;;;9.27;;
2658;SDS011;1339;53.304;10.406;2024-02-15T00:52:34;10.25;;;9.25;;
2658;SDS011;1339;53.304;10.406;2024-02-15T00:55:01;9.88;;;8.98;;
2658;SDS011;1339;53.304;10.406;2024-02-15T00:57:28;10.63;;;8.73;;
2658;SDS011;1339;53.304;10.406;2024-02-15T00:59:55;12.20;;;11.00;;
2658;SDS011;1339;53.304;10.406;2024-02-15T01:02:24;11.35;;;10.13;;
2658;SDS011;1339;53.304;10.406;2024-02-15T01:04:52;10.00;;;9.00;;
2658;SDS011;1339;53.304;10.406;2024-02-15T01:07:22;13.10;;;11.77;;
2658;SDS011;1339;53.304;10.406;2024-02-15T01:09:51;12.02;;;10.77;;
2658;SDS011;1339;53.304;10.406;2024-02-15T01:12:18;12.45;;;10.38;;
2658;SDS011;1339;53.304;10.406;2024-02-15T01:14:45;12.80;;;10.55;;
2658;SDS011;1339;53.304;10.406;2024-02-15T01:17:13;13.32;;;10.90;;
2658;SDS011;1339;53.304;10.406;2024-02-15T01:19:42;14.07;;;12.57;;
2658;SDS011;1339;53.304;10.406;2024-02-15T01:22:10;14.48;;;10.73;;
2658;SDS011;1339;53.304;10.406;2024-02-15T01:24:37;13.70;;;12.05;;
2658;SDS011;1339;53.304;10.406;2024-02-15T01:27:04;14.20;;;11.70;;
2658;SDS011;1339;53.304;10.406;2024-02-15T01:29:32;14.23;;;11.85;;
2658;SDS011;1339;53.304;10.406;2024-02-15T01:31:59;14.70;;;13.20;;
2658;SDS011;1339;53.304;10.406;2024-02-15T01:34:27;13.67;;;11.30;;
2658;SDS011;1339;53.304;10.406;2024-02-15T01:36:55;12.57;;;11.25;;
2658;SDS011;1339;53.304;10.406;2024-02-15T01:39:23;13.43;;;11.80;;
2658;SDS011;1339;53.304;10.406;2024-02-15T01:41:50;17.77;;;13.95;;
2658;SDS011;1339;53.304;10.406;2024-02-15T01:44:20;14.70;;;11.80;;
2658;SDS011;1339;53.304;10.406;2024-02-15T01:46:49;15.65;;;12.00;;
2658;SDS011;1339;53.304;10.406;2024-02-15T01:49:18;14.38;;;12.77;;
2658;SDS011;1339;53.304;10.406;2024-02-15T01:51:47;16.42;;;13.95;;
2658;SDS011;1339;53.304;10.406;2024-02-15T01:54:16;17.05;;;12.85;;
2658;SDS011;1339;53.304;10.406;2024-02-15T01:56:43;15.05;;;13.43;;
2658;SDS011;1339;53.304;10.406;2024-02-15T01:59:10;15.57;;;13.65;;
2658;SDS011;1339;53.304;10.406;2024-02-15T02:01:38;15.70;;;12.30;;
2658;SDS011;1339;53.304;10.406;2024-02-15T02:04:05;20.38;;;14.05;;
2658;SDS011;1339;53.304;10.406;2024-02-15T02:06:32;17.20;;;13.15;;
2658;SDS011;1339;53.304;10.406;2024-02-15T02:09:00;15.27;;;12.93;;
2658;SDS011;1339;53.304;10.406;2024-02-15T02:11:28;17.70;;;13.97;;
2658;SDS011;1339;53.304;10.406;2024-02-15T02:13:56;19.13;;;13.32;;
2658;SDS011;1339;53.304;10.406;2024-02-15T02:16:23;20.23;;;13.90;;
2658;SDS011;1339;53.304;10.406;2024-02-15T02:18:52;18.58;;;15.40;;
2658;SDS011;1339;53.304;10.406;2024-02-15T02:21:19;19.73;;;15.75;;
2658;SDS011;1339;53.304;10.406;2024-02-15T02:23:46;21.63;;;17.07;;
2658;SDS011;1339;53.304;10.406;2024-02-15T02:26:18;18.20;;;13.25;;
2658;SDS011;1339;53.304;10.406;2024-02-15T02:28:46;21.10;;;15.32;;
2658;SDS011;1339;53.304;10.406;2024-02-15T02:31:13;19.10;;;15.80;;
2658;SDS011;1339;53.304;10.406;2024-02-15T02:33:40;19.63;;;15.13;;
2658;SDS011;1339;53.304;10.406;2024-02-15T02:36:10;22.25;;;15.77;;
2658;SDS011;1339;53.304;10.406;2024-02-15T02:38:37;17.02;;;14.20;;
2658;SDS011;1339;53.304;10.406;2024-02-15T02:41:05;19.63;;;15.82;;
2658;SDS011;1339;53.304;10.406;2024-02-15T02:43:33;20.00;;;15.97;;
2658;SDS011;1339;53.304;10.406;2024-02-15T02:46:00;18.63;;;14.60;;
2658;SDS011;1339;53.304;10.406;2024-02-15T02:48:29;18.80;;;13.90;;
2658;SDS011;1339;53.304;10.406;2024-02-15T02:50:57;19.27;;;13.80;;
2658;SDS011;1339;53.304;10.406;2024-02-15T02:53:24;14.67;;;12.67;;
2658;SDS011;1339;53.304;10.406;2024-02-15T02:55:51;13.47;;;11.50;;
2658;SDS011;1339;53.304;10.406;2024-02-15T02:58:18;18.45;;;13.15;;
2658;SDS011;1339;53.304;10.406;2024-02-15T03:00:47;15.95;;;12.15;;
2658;SDS011;1339;53.304;10.406;2024-02-15T03:03:14;13.90;;;11.57;;
2658;SDS011;1339;53.304;10.406;2024-02-15T03:05:41;15.23;;;11.63;;
2658;SDS011;1339;53.304;10.406;2024-02-15T03:08:09;12.90;;;10.60;;
2658;SDS011;1339;53.304;10.406;2024-02-15T03:10:37;12.18;;;10.13;;
2658;SDS011;1339;53.304;10.406;2024-02-15T03:13:05;13.18;;;10.43;;
2658;SDS011;1339;53.304;10.406;2024-02-15T03:15:33;13.68;;;11.27;;
2658;SDS011;1339;53.304;10.406;2024-02-15T03:18:02;12.77;;;9.90;;
2658;SDS011;1339;53.304;10.406;2024-02-15T03:20:32;11.23;;;9.90;;
2658;SDS011;1339;53.304;10.406;2024-02-15T03:23:00;13.27;;;10.55;;
2658;SDS011;1339;53.304;10.406;2024-02-15T03:25:28;10.95;;;9.60;;
2658;SDS011;1339;53.304;10.406;2024-02-15T03:27:56;11.88;;;9.82;;
2658;SDS011;1339;53.304;10.406;2024-02-15T03:30:24;11.10;;;9.30;;
2658;SDS011;1339;53.304;10.406;2024-02-15T03:32:51;12.27;;;10.45;;
2658;SDS011;1339;53.304;10.406;2024-02-15T03:35:20;10.40;;;9.40;;
2658;SDS011;1339;53.304;10.406;2024-02-15T03:37:48;10.57;;;9.48;;
2658;SDS011;1339;53.304;10.406;2024-02-15T03:40:16;9.93;;;8.93;;
2658;SDS011;1339;53.304;10.406;2024-02-15T03:42:44;10.37;;;9.27;;
2658;SDS011;1339;53.304;10.406;2024-02-15T03:45:11;10.70;;;9.52;;
2658;SDS011;1339;53.304;10.406;2024-02-15T03:47:39;9.47;;;8.47;;
2658;SDS011;1339;53.304;10.406;2024-02-15T03:50:06;10.27;;;9.00;;
2658;SDS011;1339;53.304;10.406;2024-02-15T03:52:36;11.03;;;9.93;;
2658;SDS011;1339;53.304;10.406;2024-02-15T03:55:03;9.47;;;8.33;;
2658;SDS011;1339;53.304;10.406;2024-02-15T03:57:32;10.20;;;9.20;;
2658;SDS011;1339;53.304;10.406;2024-02-15T03:59:59;9.97;;;8.57;;
2658;SDS011;1339;53.304;10.406;2024-02-15T04:02:27;10.85;;;9.30;;
2658;SDS011;1339;53.304;10.406;2024-02-15T04:04:55;11.30;;;10.13;;
2658;SDS011;1339;53.304;10.406;2024-02-15T04:07:23;11.60;;;9.50;;
2658;SDS011;1339;53.304;10.406;2024-02-15T04:09:53;11.43;;;10.13;;
2658;SDS011;1339;53.304;10.406;2024-02-15T04:12:20;10.23;;;9.10;;
2658;SDS011;1339;53.304;10.406;2024-02-15T04:14:47;11.50;;;9.95;;
2658;SDS011;1339;53.304;10.406;2024-02-15T04:17:16;12.97;;;11.40;;
2658;SDS011;1339;53.304;10.406;2024-02-15T04:19:46;14.57;;;11.77;;
2658;SDS011;1339;53.304;10.406;2024-02-15T04:22:15;12.50;;;10.07;;
2658;SDS011;1339;53.304;10.406;2024-02-15T04:24:42;11.43;;;10.23;;
2658;SDS011;1339;53.304;10.406;2024-02-15T04:27:11;13.27;;;10.50;;
2658;SDS011;1339;53.304;10.406;2024-02-15T04:29:39;13.97;;;11.87;;
2658;SDS011;1339;53.304;10.406;2024-02-15T04:32:06;14.37;;;11.53;;
2658;SDS011;1339;53.304;10.406;2024-02-15T04:34:35;12.10;;;10.10;;
2658;SDS011;1339;53.304;10.406;2024-02-15T04:37:02;13.87;;;11.73;;
2658;SDS011;1339;53.304;10.406;2024-02-15T04:39:32;15.87;;;11.23;;
2658;SDS011;1339;53.304;10.406;2024-02-15T04:42:01;12.63;;;10.43;;
2658;SDS011;1339;53.304;10.406;2024-02-15T04:44:29;11.83;;;10.53;;
2658;SDS011;1339;53.304;10.406;2024-02-15T04:47:00;13.13;;;11.50;;
2658;SDS011;1339;53.304;10.406;2024-02-15T04:49:27;13.10;;;11.07;;
2658;SDS011;1339;53.304;10.406;2024-02-15T04:51:55;12.65;;;10.40;;
2658;SDS011;1339;53.304;10.406;2024-02-15T04:54:22;14.37;;;11.23;;
2658;SDS011;1339;53.304;10.406;2024-02-15T04:56:49;14.83;;;11.60;;
2658;SDS011;1339;53.304;10.406;2024-02-15T04:59:18;17.40;;;10.60;;
2658;SDS011;1339;53.304;10.406;2024-02-15T05:01:47;13.10;;;10.93;;
2658;SDS011;1339;53.304;10.406;2024-02-15T05:04:15;13.10;;;11.60;;
2658;SDS011;1339;53.304;10.406;2024-02-15T05:06:43;13.50;;;10.93;;
2658;SDS011;1339;53.304;10.406;2024-02-15T05:09:10;14.47;;;10.80;;
2658;SDS011;1339;53.304;10.406;2024-02-15T05:11:38;20.37;;;12.47;;
2658;SDS011;1339;53.304;10.406;2024-02-15T05:14:06;16.43;;;12.07;;
2658;SDS011;1339;53.304;10.406;2024-02-15T05:16:36;16.53;;;13.13;;
2658;SDS011;1339;53.304;10.406;2024-02-15T05:19:08;13.50;;;10.20;;
2658;SDS011;1339;53.304;10.406;2024-02-15T05:21:37;14.53;;;11.20;;
2658;SDS011;1339;53.304;10.406;2024-02-15T05:24:05;15.37;;;12.77;;
2658;SDS011;1339;53.304;10.406;2024-02-15T05:26:32;15.70;;;12.73;;
2658;SDS011;1339;53.304;10.406;2024-02-15T05:29:00;17.03;;;13.83;;
2658;SDS011;1339;53.304;10.406;2024-02-15T05:31:29;16.20;;;12.23;;
2658;SDS011;1339;53.304;10.406;2024-02-15T05:33:56;15.33;;;11.53;;
2658;SDS011;1339;53.304;10.406;2024-02-15T05:36:25;20.25;;;13.80;;
2658;SDS011;1339;53.304;10.406;2024-02-15T05:38:52;17.00;;;12.10;;
2658;SDS011;1339;53.304;10.406;2024-02-15T05:41:20;16.60;;;13.60;;
2658;SDS011;1339;53.304;10.406;2024-02-15T05:43:47;17.88;;;13.75;;
2658;SDS011;1339;53.304;10.406;2024-02-15T05:46:14;17.93;;;12.90;;
2658;SDS011;1339;53.304;10.406;2024-02-15T05:48:42;16.38;;;13.05;;
2658;SDS011;1339;53.304;10.406;2024-02-15T05:51:09;17.37;;;13.33;;
2658;SDS011;1339;53.304;10.406;2024-02-15T05:53:37;17.97;;;13.80;;
2658;SDS011;1339;53.304;10.406;2024-02-15T05:56:06;19.77;;;13.67;;
2658;SDS011;1339;53.304;10.406;2024-02-15T05:58:34;16.60;;;12.93;;
2658;SDS011;1339;53.304;10.406;2024-02-15T06:01:02;16.63;;;13.13;;
2658;SDS011;1339;53.304;10.406;2024-02-15T06:03:31;16.67;;;14.13;;
2658;SDS011;1339;53.304;10.406;2024-02-15T06:05:59;17.03;;;13.70;;
2658;SDS011;1339;53.304;10.406;2024-02-15T06:08:27;16.20;;;13.37;;
2658;SDS011;1339;53.304;10.406;2024-02-15T06:10:57;17.40;;;12.13;;
2658;SDS011;1339;53.304;10.406;2024-02-15T06:13:24;17.20;;;14.40;;
2658;SDS011;1339;53.304;10.406;2024-02-15T06:15:52;19.70;;;13.73;;
2658;SDS011;1339;53.304;10.406;2024-02-15T06:18:20;17.60;;;13.53;;
2658;SDS011;1339;53.304;10.406;2024-02-15T06:20:51;17.67;;;13.20;;
2658;SDS011;1339;53.304;10.406;2024-02-15T06:23:18;18.90;;;14.00;;
2658;SDS011;1339;53.304;10.406;2024-02-15T06:25:46;19.75;;;15.68;;
2658;SDS011;1339;53.304;10.406;2024-02-15T06:28:15;19.00;;;13.43;;
2658;SDS011;1339;53.304;10.406;2024-02-15T06:31:05;23.07;;;16.43;;
2658;SDS011;1339;53.304;10.406;2024-02-15T06:33:50;17.08;;;14.02;;
2658;SDS011;1339;53.304;10.406;2024-02-15T06:36:40;19.57;;;14.03;;
2658;SDS011;1339;53.304;10.406;2024-02-15T06:39:25;19.20;;;13.93;;
2658;SDS011;1339;53.304;10.406;2024-02-15T06:42:06;23.52;;;16.30;;
2658;SDS011;1339;53.304;10.406;2024-02-15T06:44:34;20.60;;;14.00;;
2658;SDS011;1339;53.304;10.406;2024-02-15T06:47:01;19.48;;;15.43;;
2658;SDS011;1339;53.304;10.406;2024-02-15T06:49:28;20.57;;;15.77;;
2658;SDS011;1339;53.304;10.406;2024-02-15T06:51:56;23.70;;;15.53;;
2658;SDS011;1339;53.304;10.406;2024-02-15T06:54:24;25.37;;;16.40;;
2658;SDS011;1339;53.304;10.406;2024-02-15T06:56:51;22.17;;;15.77;;
2658;SDS011;1339;53.304;10.406;2024-02-15T06:59:19;21.53;;;15.53;;
2658;SDS011;1339;53.304;10.406;2024-02-15T07:01:48;22.50;;;15.20;;
2658;SDS011;1339;53.304;10.406;2024-02-15T07:04:17;19.55;;;14.48;;
2658;SDS011;1339;53.304;10.406;2024-02-15T07:06:44;23.20;;;15.97;;
2658;SDS011;1339;53.304;10.406;2024-02-15T07:09:13;22.77;;;15.33;;
2658;SDS011;1339;53.304;10.406;2024-02-15T07:11:42;21.37;;;15.77;;
2658;SDS011;1339;53.304;10.406;2024-02-15T07:14:11;19.50;;;15.70;;
2658;SDS011;1339;53.304;10.406;2024-02-15T07:16:38;22.27;;;16.80;;
2658;SDS011;1339;53.304;10.406;2024-02-15T07:19:07;21.70;;;13.60;;
2658;SDS011;1339;53.304;10.406;2024-02-15T07:21:34;18.20;;;13.90;;
2658;SDS011;1339;53.304;10.406;2024-02-15T07:24:02;20.50;;;13.97;;
2658;SDS011;1339;53.304;10.406;2024-02-15T07:26:30;21.10;;;15.80;;
2658;SDS011;1339;53.304;10.406;2024-02-15T07:28:59;17.93;;;14.23;;
2658;SDS011;1339;53.304;10.406;2024-02-15T07:31:30;17.67;;;12.67;;
2658;SDS011;1339;53.304;10.406;2024-02-15T07:33:58;20.37;;;15.77;;
2658;SDS011;1339;53.304;10.406;2024-02-15T07:36:26;22.45;;;13.55;;
2658;SDS011;1339;53.304;10.406;2024-02-15T07:38:53;21.17;;;15.50;;
2658;SDS011;1339;53.304;10.406;2024-02-15T07:41:25;19.55;;;14.18;;
2658;SDS011;1339;53.304;10.406;2024-02-15T07:43:53;18.50;;;13.87;;
2658;SDS011;1339;53.304;10.406;2024-02-15T07:46:21;21.10;;;14.67;;
2658;SDS011;1339;53.304;10.406;2024-02-15T07:48:49;17.97;;;13.20;;
2658;SDS011;1339;53.304;10.406;2024-02-15T07:51:16;19.38;;;14.00;;
2658;SDS011;1339;53.304;10.406;2024-02-15T07:53:45;21.30;;;12.68;;
2658;SDS011;1339;53.304;10.406;2024-02-15T07:56:13;18.47;;;13.73;;
2658;SDS011;1339;53.304;10.406;2024-02-15T07:58:41;16.83;;;13.97;;
2658;SDS011;1339;53.304;10.406;2024-02-15T08:01:11;17.37;;;13.90;;
2658;SDS011;1339;53.304;10.406;2024-02-15T08:03:39;13.80;;;12.13;;
2658;SDS011;1339;53.304;10.406;2024-02-15T08:06:09;18.67;;;12.33;;
2658;SDS011;1339;53.304;10.406;2024-02-15T08:08:37;21.20;;;13.60;;
2658;SDS011;1339;53.304;10.406;2024-02-15T08:11:07;15.20;;;11.80;;
2658;SDS011;1339;53.304;10.406;2024-02-15T08:13:39;11.50;;;10.30;;
2658;SDS011;1339;53.304;10.406;2024-02-15T08:16:07;15.90;;;11.67;;
2658;SDS011;1339;53.304;10.406;2024-02-15T08:18:34;15.40;;;12.17;;
2658;SDS011;1339;53.304;10.406;2024-02-15T08:21:01;16.20;;;12.23;;
2658;SDS011;1339;53.304;10.406;2024-02-15T08:23:29;14.73;;;12.60;;
2658;SDS011;1339;53.304;10.406;2024-02-15T08:25:57;13.10;;;11.77;;
2658;SDS011;1339;53.304;10.406;2024-02-15T08:28:25;13.70;;;10.80;;
2658;SDS011;1339;53.304;10.406;2024-02-15T08:30:53;12.67;;;10.00;;
2658;SDS011;1339;53.304;10.406;2024-02-15T08:33:21;13.77;;;9.90;;
2658;SDS011;1339;53.304;10.406;2024-02-15T08:35:48;13.20;;;11.17;;
2658;SDS011;1339;53.304;10.406;2024-02-15T08:38:16;12.60;;;10.67;;
2658;SDS011;1339;53.304;10.406;2024-02-15T08:40:43;13.53;;;11.10;;
2658;SDS011;1339;53.304;10.406;2024-02-15T08:43:11;13.37;;;9.50;;
2658;SDS011;1339;53.304;10.406;2024-02-15T08:45:40;12.67;;;11.30;;
2658;SDS011;1339;53.304;10.406;2024-02-15T08:48:07;11.27;;;8.93;;
2658;SDS011;1339;53.304;10.406;2024-02-15T08:50:38;11.03;;;9.73;;
2658;SDS011;1339;53.304;10.406;2024-02-15T08:53:06;9.97;;;8.40;;
2658;SDS011;1339;53.304;10.406;2024-02-15T08:55:33;9.90;;;7.67;;
2658;SDS011;1339;53.304;10.406;2024-02-15T08:58:01;8.37;;;7.57;;
2658;SDS011;1339;53.304;10.406;2024-02-15T09:00:29;10.53;;;9.50;;
2658;SDS011;1339;53.304;10.406;2024-02-15T09:02:57;8.00;;;7.20;;
2658;SDS011;1339;53.304;10.406;2024-02-15T09:05:24;7.90;;;7.10;;
2658;SDS011;1339;53.304;10.406;2024-02-15T09:07:51;8.50;;;7.70;;
2658;SDS011;1339;53.304;10.406;2024-02-15T09:10:18;7.77;;;7.07;;
2658;SDS011;1339;53.304;10.406;2024-02-15T09:12:47;8.63;;;7.20;;
2658;SDS011;1339;53.304;10.406;2024-02-15T09:15:15;7.57;;;6.87;;
2658;SDS011;1339;53.304;10.406;2024-02-15T09:17:42;7.93;;;7.10;;
2658;SDS011;1339;53.304;10.406;2024-02-15T09:20:12;7.40;;;6.70;;
2658;SDS011;1339;53.304;10.406;2024-02-15T09:22:40;8.80;;;8.03;;
2658;SDS011;1339;53.304;10.406;2024-02-15T09:25:08;8.67;;;7.77;;
2658;SDS011;1339;53.304;10.406;2024-02-15T09:27:35;8.13;;;7.27;;
2658;SDS011;1339;53.304;10.406;2024-02-15T09:30:03;7.90;;;7.10;;
2658;SDS011;1339;53.304;10.406;2024-02-15T09:32:33;9.80;;;8.30;;
2658;SDS011;1339;53.304;10.406;2024-02-15T09:35:01;8.60;;;7.80;;
2658;SDS011;1339;53.304;10.406;2024-02-15T09:37:30;8.87;;;8.00;;
2658;SDS011;1339;53.304;10.406;2024-02-15T09:39:58;10.23;;;9.13;;
2658;SDS011;1339;53.304;10.406;2024-02-15T09:42:30;11.43;;;9.03;;
2658;SDS011;1339;53.304;10.406;2024-02-15T09:44:59;10.57;;;9.50;;
2658;SDS011;1339;53.304;10.406;2024-02-15T09:47:27;10.53;;;9.40;;
2658;SDS011;1339;53.304;10.406;2024-02-15T09:49:56;10.63;;;9.53;;
2658;SDS011;1339;53.304;10.406;2024-02-15T09:52:26;9.90;;;8.93;;
2658;SDS011;1339;53.304;10.406;2024-02-15T09:54:58;11.57;;;10.57;;
2658;SDS011;1339;53.304;10.406;2024-02-15T09:57:26;13.27;;;11.97;;
2658;SDS011;1339;53.304;10.406;2024-02-15T09:59:54;16.63;;;11.87;;
2658;SDS011;1339;53.304;10.406;2024-02-15T10:02:21;13.00;;;10.93;;
2658;SDS011;1339;53.304;10.406;2024-02-15T10:04:48;14.53;;;11.10;;
2658;SDS011;1339;53.304;10.406;2024-02-15T10:07:16;16.50;;;12.93;;
2658;SDS011;1339;53.304;10.406;2024-02-15T10:09:43;15.80;;;13.30;;
2658;SDS011;1339;53.304;10.406;2024-02-15T10:12:12;16.27;;;12.93;;
2658;SDS011;1339;53.304;10.406;2024-02-15T10:14:39;17.00;;;13.33;;
2658;SDS011;1339;53.304;10.406;2024-02-15T10:17:15;13.93;;;12.63;;
2658;SDS011;1339;53.304;10.406;2024-02-15T10:19:43;14.87;;;13.27;;
2658;SDS011;1339;53.304;10.406;2024-02-15T10:22:12;21.40;;;14.43;;
2658;SDS011;1339;53.304;10.406;2024-02-15T10:24:40;15.57;;;12.60;;
2658;SDS011;1339;53.304;10.406;2024-02-15T10:27:07;15.50;;;13.90;;
2658;SDS011;1339;53.304;10.406;2024-02-15T10:29:36;15.83;;;14.17;;
2658;SDS011;1339;53.304;10.406;2024-02-15T10:32:05;17.47;;;14.43;;
2658;SDS011;1339;53.304;10.406;2024-02-15T10:34:35;17.20;;;13.83;;
2658;SDS011;1339;53.304;10.406;2024-02-15T10:37:10;16.37;;;14.30;;
2658;SDS011;1339;53.304;10.406;2024-02-15T10:39:38;16.10;;;14.20;;
2658;SDS011;1339;53.304;10.406;2024-02-15T10:42:06;18.03;;;15.23;;
2658;SDS011;1339;53.304;10.406;2024-02-15T10:44:37;18.70;;;16.40;;
2658;SDS011;1339;53.304;10.406;2024-02-15T10:47:05;18.27;;;16.50;;
2658;SDS011;1339;53.304;10.406;2024-02-15T10:49:32;18.17;;;14.53;;
2658;SDS011;1339;53.304;10.406;2024-02-15T10:52:01;26.97;;;16.80;;
2658;SDS011;1339;53.304;10.406;2024-02-15T10:54:40;20.00;;;17.50;;
2658;SDS011;1339;53.304;10.406;2024-02-15T10:57:09;23.97;;;17.80;;
2658;SDS011;1339;53.304;10.406;2024-02-15T10:59:37;21.10;;;18.57;;
2658;SDS011;1339;53.304;10.406;2024-02-15T11:02:11;19.97;;;17.80;;
2658;SDS011;1339;53.304;10.406;2024-02-15T11:04:42;22.77;;;18.83;;
2658;SDS011;1339;53.304;10.406;2024-02-15T11:07:11;22.57;;;17.63;;
2658;SDS011;1339;53.304;10.406;2024-02-15T11:09:39;23.80;;;19.97;;
2658;SDS011;1339;53.304;10.406;2024-02-15T11:12:07;23.07;;;19.40;;
2658;SDS011;1339;53.304;10.406;2024-02-15T11:14:37;28.20;;;21.30;;
2658;SDS011;1339;53.304;10.406;2024-02-15T11:17:04;24.03;;;20.30;;
2658;SDS011;1339;53.304;10.406;2024-02-15T11:19:41;25.60;;;18.90;;
2658;SDS011;1339;53.304;10.406;2024-02-15T11:22:11;20.77;;;18.67;;
2658;SDS011;1339;53.304;10.406;2024-02-15T11:24:45;22.57;;;20.23;;
2658;SDS011;1339;53.304;10.406;2024-02-15T11:27:12;20.97;;;17.63;;
2658;SDS011;1339;53.304;10.406;2024-02-15T11:29:51;24.20;;;21.60;;
2658;SDS011;1339;53.304;10.406;2024-02-15T11:32:33;22.87;;;18.67;;
2658;SDS011;1339;53.304;10.406;2024-02-15T11:35:04;24.13;;;19.80;;
2658;SDS011;1339;53.304;10.406;2024-02-15T11:37:51;21.07;;;18.83;;
2658;SDS011;1339;53.304;10.406;2024-02-15T11:40:19;21.27;;;18.13;;
2658;SDS011;1339;53.304;10.406;2024-02-15T11:42:48;20.43;;;17.40;;
2658;SDS011;1339;53.304;10.406;2024-02-15T11:45:17;19.67;;;17.00;;
2658;SDS011;1339;53.304;10.406;2024-02-15T11:47:46;18.83;;;16.83;;
2658;SDS011;1339;53.304;10.406;2024-02-15T11:50:15;21.40;;;17.53;;
2658;SDS011;1339;53.304;10.406;2024-02-15T11:52:42;24.30;;;18.13;;
2658;SDS011;1339;53.304;10.406;2024-02-15T11:55:10;20.70;;;18.17;;
2658;SDS011;1339;53.304;10.406;2024-02-15T11:57:38;20.10;;;17.73;;
2658;SDS011;1339;53.304;10.406;2024-02-15T12:00:23;21.00;;;17.80;;
2658;SDS011;1339;53.304;10.406;2024-02-15T12:03:08;20.13;;;17.50;;
2658;SDS011;1339;53.304;10.406;2024-02-15T12:05:54;18.30;;;15.93;;
2658;SDS011;1339;53.304;10.406;2024-02-15T12:08:38;19.77;;;16.37;;
2658;SDS011;1339;53.304;10.406;2024-02-15T12:11:23;17.93;;;14.97;;
2658;SDS011;1339;53.304;10.406;2024-02-15T12:14:11;20.60;;;14.50;;
2658;SDS011;1339;53.304;10.406;2024-02-15T12:17:04;19.17;;;15.33;;
2658;SDS011;1339;53.304;10.406;2024-02-15T12:19:50;16.80;;;15.10;;
2658;SDS011;1339;53.304;10.406;2024-02-15T12:22:19;16.27;;;14.40;;
2658;SDS011;1339;53.304;10.406;2024-02-15T12:24:53;15.97;;;14.40;;
2658;SDS011;1339;53.304;10.406;2024-02-15T12:27:21;14.27;;;12.87;;
2658;SDS011;1339;53.304;10.406;2024-02-15T12:29:52;12.87;;;11.57;;
2658;SDS011;1339;53.304;10.406;2024-02-15T12:32:21;13.50;;;12.17;;
2658;SDS011;1339;53.304;10.406;2024-02-15T12:34:48;18.47;;;11.80;;
2658;SDS011;1339;53.304;10.406;2024-02-15T12:37:17;11.00;;;9.90;;
2658;SDS011;1339;53.304;10.406;2024-02-15T12:39:46;11.00;;;9.87;;
2658;SDS011;1339;53.304;10.406;2024-02-15T12:42:14;11.23;;;10.13;;
2658;SDS011;1339;53.304;10.406;2024-02-15T12:44:43;12.23;;;10.90;;
2658;SDS011;1339;53.304;10.406;2024-02-15T12:47:17;13.53;;;9.67;;
2658;SDS011;1339;53.304;10.406;2024-02-15T12:49:45;13.70;;;10.00;;
2658;SDS011;1339;53.304;10.406;2024-02-15T12:55:08;9.50;;;8.60;;
2658;SDS011;1339;53.304;10.406;2024-02-15T12:57:36;9.90;;;8.80;;
2658;SDS011;1339;53.304;10.406;2024-02-15T13:00:06;15.80;;;9.87;;
2658;SDS011;1339;53.304;10.406;2024-02-15T13:02:36;9.37;;;8.47;;
2658;SDS011;1339;53.304;10.406;2024-02-15T13:05:05;8.17;;;7.37;;
2658;SDS011;1339;53.304;10.406;2024-02-15T13:07:33;8.10;;;7.40;;
2658;SDS011;1339;53.304;10.406;2024-02-15T13:10:00;9.97;;;8.23;;
2658;SDS011;1339;53.304;10.406;2024-02-15T13:12:28;9.73;;;6.93;;
2658;SDS011;1339;53.304;10.406;2024-02-15T13:14:55;8.33;;;7.47;;
2658;SDS011;1339;53.304;10.406;2024-02-15T13:17:23;9.23;;;7.50;;
2658;SDS011;1339;53.304;10.406;2024-02-15T13:19:52;10.07;;;6.90;;
2658;SDS011;1339;53.304;10.406;2024-02-15T13:22:28;7.23;;;6.00;;
2658;SDS011;1339;53.304;10.406;2024-02-15T13:24:56;5.73;;;5.10;;
2658;SDS011;1339;53.304;10.406;2024-02-15T13:27:23;7.40;;;6.80;;
2658;SDS011;1339;53.304;10.406;2024-02-15T13:29:50;6.30;;;5.43;;
2658;SDS011;1339;53.304;10.406;2024-02-15T13:32:18;6.60;;;5.97;;
2658;SDS011;1339;53.304;10.406;2024-02-15T13:34:47;9.13;;;6.47;;
2658;SDS011;1339;53.304;10.406;2024-02-15T13:37:17;5.93;;;5.33;;
2658;SDS011;1339;53.304;10.406;2024-02-15T13:39:46;10.10;;;4.70;;
2658;SDS011;1339;53.304;10.406;2024-02-15T13:42:13;5.30;;;4.80;;
2658;SDS011;1339;53.304;10.406;2024-02-15T13:44:41;6.83;;;4.00;;
2658;SDS011;1339;53.304;10.406;2024-02-15T13:47:09;5.47;;;5.07;;
2658;SDS011;1339;53.304;10.406;2024-02-15T13:49:37;4.70;;;4.30;;
2658;SDS011;1339;53.304;10.406;2024-02-15T13:52:05;5.07;;;4.57;;
2658;SDS011;1339;53.304;10.406;2024-02-15T13:54:32;7.43;;;4.23;;
2658;SDS011;1339;53.304;10.406;2024-02-15T13:57:01;5.30;;;4.80;;
2658;SDS011;1339;53.304;10.406;2024-02-15T13:59:28;5.00;;;4.60;;
2658;SDS011;1339;53.304;10.406;2024-02-15T14:01:55;6.20;;;4.83;;
2658;SDS011;1339;53.304;10.406;2024-02-15T14:04:23;5.00;;;4.60;;
2658;SDS011;1339;53.304;10.406;2024-02-15T14:06:53;4.93;;;4.53;;
2658;SDS011;1339;53.304;10.406;2024-02-15T14:09:21;8.03;;;5.07;;
2658;SDS011;1339;53.304;10.406;2024-02-15T14:11:51;5.00;;;4.60;;
2658;SDS011;1339;53.304;10.406;2024-02-15T14:14:19;5.17;;;4.77;;
2658;SDS011;1339;53.304;10.406;2024-02-15T14:16:47;5.13;;;4.73;;
2658;SDS011;1339;53.304;10.406;2024-02-15T14:19:14;6.60;;;5.27;;
2658;SDS011;1339;53.304;10.406;2024-02-15T14:21:42;5.43;;;5.00;;
2658;SDS011;1339;53.304;10.406;2024-02-15T14:24:10;5.70;;;5.00;;
2658;SDS011;1339;53.304;10.406;2024-02-15T14:26:38;5.63;;;5.10;;
2658;SDS011;1339;53.304;10.406;2024-02-15T14:29:05;6.30;;;5.70;;
2658;SDS011;1339;53.304;10.406;2024-02-15T14:31:33;6.13;;;4.60;;
2658;SDS011;1339;53.304;10.406;2024-02-15T14:34:18;5.40;;;5.00;;
2658;SDS011;1339;53.304;10.406;2024-02-15T14:36:45;5.50;;;5.03;;
2658;SDS011;1339;53.304;10.406;2024-02-15T14:39:13;5.70;;;5.30;;
2658;SDS011;1339;53.304;10.406;2024-02-15T14:41:40;6.53;;;5.43;;
2658;SDS011;1339;53.304;10.406;2024-02-15T14:44:09;5.73;;;5.23;;
2658;SDS011;1339;53.304;10.406;2024-02-15T14:46:39;7.33;;;6.63;;
2658;SDS011;1339;53.304;10.406;2024-02-15T14:49:06;6.73;;;6.17;;
2658;SDS011;1339;53.304;10.406;2024-02-15T14:51:33;7.87;;;6.03;;
2658;SDS011;1339;53.304;10.406;2024-02-15T14:54:02;6.20;;;5.70;;